createdAt,value
2023-03-12T00:02:59.079Z,24.13
2023-03-12T00:06:59.090Z,24.14
2023-03-12T00:10:59.262Z,24.15
2023-03-12T00:14:59.347Z,24.14
2023-03-12T00:18:59.479Z,24.17
2023-03-12T00:22:59.609Z,24.18
2023-03-12T00:26:59.766Z,24.20
2023-03-12T00:30:59.933Z,24.21
2023-03-12T00:35:00.029Z,24.24
2023-03-12T00:39:00.135Z,24.26
2023-03-12T00:43:00.254Z,24.27
2023-03-12T00:47:00.419Z,24.27
2023-03-12T00:51:00.573Z,24.31
2023-03-12T00:55:00.657Z,24.29
2023-03-12T00:59:00.841Z,24.23
2023-03-12T01:03:00.956Z,24.21
2023-03-12T01:07:01.048Z,24.19
2023-03-12T01:11:01.167Z,24.18
2023-03-12T01:15:01.368Z,24.20
2023-03-12T01:19:01.455Z,24.17
2023-03-12T01:23:01.555Z,24.18
2023-03-12T01:27:01.715Z,24.17
2023-03-12T01:31:01.838Z,24.15
2023-03-12T01:35:01.982Z,24.15
2023-03-12T01:39:02.159Z,24.17
2023-03-12T01:43:02.284Z,24.16
2023-03-12T01:47:02.413Z,24.16
2023-03-12T01:51:02.548Z,24.14
2023-03-12T01:55:02.696Z,24.14
2023-03-12T01:59:02.994Z,24.15
2023-03-12T02:03:03.072Z,24.14
2023-03-12T02:07:03.144Z,24.13
2023-03-12T02:11:03.372Z,24.12
2023-03-12T02:15:03.446Z,24.13
2023-03-12T02:19:03.529Z,24.11
2023-03-12T02:23:03.682Z,24.13
2023-03-12T02:27:03.902Z,24.14
2023-03-12T02:31:04.041Z,24.12
2023-03-12T02:35:04.109Z,24.10
2023-03-12T02:39:04.231Z,24.12
2023-03-12T02:43:04.364Z,24.11
2023-03-12T02:47:04.486Z,24.12
2023-03-12T02:51:04.618Z,24.10
2023-03-12T02:55:04.800Z,24.11
2023-03-12T02:59:04.937Z,24.09
2023-03-12T03:03:05.014Z,24.09
2023-03-12T03:07:05.198Z,24.11
2023-03-12T03:11:05.322Z,24.11
2023-03-12T03:15:05.515Z,24.11
2023-03-12T03:19:05.594Z,24.13
2023-03-12T03:23:05.734Z,24.12
2023-03-12T03:27:05.849Z,24.10
2023-03-12T03:31:06.050Z,24.13
2023-03-12T03:35:06.155Z,24.13
2023-03-12T03:39:06.273Z,24.09
2023-03-12T03:43:06.396Z,24.14
2023-03-12T03:47:06.570Z,24.12
2023-03-12T03:51:06.702Z,24.15
2023-03-12T03:55:06.829Z,24.16
2023-03-12T03:59:06.973Z,24.18
2023-03-12T04:03:07.185Z,24.18
2023-03-12T04:07:07.304Z,24.18
2023-03-12T04:11:07.408Z,24.21
2023-03-12T04:15:07.566Z,24.20
2023-03-12T04:19:07.683Z,24.18
2023-03-12T04:23:07.784Z,24.19
2023-03-12T04:27:07.929Z,24.16
2023-03-12T04:31:08.165Z,24.15
2023-03-12T04:35:08.176Z,24.18
2023-03-12T04:39:08.387Z,24.19
2023-03-12T04:43:08.460Z,24.19
2023-03-12T04:47:08.648Z,24.19
2023-03-12T04:51:08.707Z,24.22
2023-03-12T04:55:08.833Z,24.24
2023-03-12T04:59:08.981Z,24.26
2023-03-12T05:03:09.142Z,24.30
2023-03-12T05:07:09.266Z,24.30
2023-03-12T05:11:09.415Z,24.33
2023-03-12T05:15:09.499Z,24.34
2023-03-12T05:19:09.719Z,24.32
2023-03-12T05:23:09.784Z,24.36
2023-03-12T05:27:09.946Z,24.37
2023-03-12T05:31:10.189Z,24.39
2023-03-12T05:35:10.156Z,24.40
2023-03-12T05:39:10.600Z,24.44
2023-03-12T05:43:10.427Z,24.44
2023-03-12T05:47:10.568Z,24.43
2023-03-12T05:51:10.721Z,24.43
2023-03-12T05:55:10.856Z,24.42
2023-03-12T05:59:10.939Z,24.41
2023-03-12T06:03:11.101Z,24.39
2023-03-12T06:07:11.204Z,24.38
2023-03-12T06:11:11.318Z,24.40
2023-03-12T06:15:11.476Z,24.41
2023-03-12T06:19:11.625Z,24.40
2023-03-12T06:23:11.693Z,24.41
2023-03-12T06:27:11.833Z,24.40
2023-03-12T06:31:11.989Z,24.44
2023-03-12T06:35:12.074Z,24.44
2023-03-12T06:39:12.251Z,24.42
2023-03-12T06:43:12.355Z,24.39
2023-03-12T06:47:12.463Z,24.36
2023-03-12T06:51:12.615Z,24.37
2023-03-12T06:55:12.746Z,24.34
2023-03-12T06:59:12.869Z,24.36
2023-03-12T07:03:13.002Z,24.37
2023-03-12T07:07:13.125Z,24.37
2023-03-12T07:11:13.259Z,24.37
2023-03-12T07:15:13.407Z,24.41
2023-03-12T07:19:13.525Z,24.38
2023-03-12T07:23:13.695Z,24.37
2023-03-12T07:27:13.872Z,24.40
2023-03-12T07:31:14.235Z,24.37
2023-03-12T07:35:14.129Z,24.39
2023-03-12T07:39:14.256Z,24.35
2023-03-12T07:43:14.342Z,24.35
2023-03-12T07:47:23.627Z,24.31
2023-03-12T07:51:15.464Z,24.33
2023-03-12T07:55:14.558Z,24.31
2023-03-12T07:59:14.459Z,24.32
2023-03-12T08:03:14.643Z,24.33
2023-03-12T08:07:14.536Z,24.29
2023-03-12T08:11:14.602Z,24.24
2023-03-12T08:15:14.680Z,24.21
2023-03-12T08:19:14.757Z,24.25
2023-03-12T08:23:14.838Z,24.30
2023-03-12T08:27:14.954Z,24.24
2023-03-12T08:31:15.001Z,24.23
2023-03-12T08:35:15.013Z,24.29
2023-03-12T08:39:15.124Z,24.26
2023-03-12T08:43:15.142Z,24.20
2023-03-12T08:47:15.194Z,24.13
2023-03-12T08:51:16.888Z,24.07
2023-03-12T08:55:15.146Z,24.10
2023-03-12T08:59:15.154Z,24.18
2023-03-12T09:03:15.286Z,24.22
2023-03-12T09:07:15.113Z,24.21
2023-03-12T09:11:15.077Z,24.21
2023-03-12T09:15:15.150Z,24.16
2023-03-12T09:19:15.102Z,24.16
2023-03-12T09:23:15.104Z,24.16
2023-03-12T09:27:15.160Z,24.15
2023-03-12T09:31:15.229Z,24.18
2023-03-12T09:35:15.315Z,24.20
2023-03-12T09:39:15.707Z,24.18
2023-03-12T09:43:15.309Z,24.17
2023-03-12T09:47:15.582Z,24.13
2023-03-12T09:51:15.582Z,24.15
2023-03-12T09:55:15.602Z,24.12
2023-03-12T09:59:15.577Z,24.14
2023-03-12T10:03:15.546Z,24.23
2023-03-12T10:07:15.521Z,24.27
2023-03-12T10:11:15.391Z,24.34
2023-03-12T10:15:15.386Z,24.36
2023-03-12T10:19:15.327Z,24.37
2023-03-12T10:23:15.260Z,24.45
2023-03-12T10:27:15.240Z,24.45
2023-03-12T10:31:15.464Z,24.52
2023-03-12T10:35:15.405Z,24.53
2023-03-12T10:39:15.356Z,24.47
2023-03-12T10:43:15.449Z,24.39
2023-03-12T10:47:15.294Z,24.38
2023-03-12T10:51:15.228Z,24.39
2023-03-12T10:55:15.204Z,24.38
2023-03-12T10:59:15.173Z,24.33
2023-03-12T11:03:15.125Z,24.32
2023-03-12T11:07:15.102Z,24.25
2023-03-12T11:11:15.066Z,24.25
2023-03-12T11:15:15.262Z,24.31
2023-03-12T11:19:15.465Z,24.29
2023-03-12T11:23:15.699Z,24.32
2023-03-12T11:27:15.848Z,24.32
2023-03-12T11:31:16.114Z,24.29
2023-03-12T11:35:16.206Z,24.32
2023-03-12T11:39:16.289Z,24.35
2023-03-12T11:43:16.432Z,24.32
2023-03-12T11:47:16.504Z,24.39
2023-03-12T11:51:16.609Z,24.20
2023-03-12T11:55:16.826Z,24.30
2023-03-12T11:59:16.575Z,24.37
2023-03-12T12:03:16.678Z,24.44
2023-03-12T12:07:16.701Z,24.39
2023-03-12T12:11:16.765Z,24.29
2023-03-12T12:15:16.855Z,24.35
2023-03-12T12:19:16.919Z,24.49
2023-03-12T12:23:16.969Z,24.44
2023-03-12T12:27:17.045Z,24.52
2023-03-12T12:31:17.153Z,24.70
2023-03-12T12:35:17.187Z,24.83
2023-03-12T12:39:17.283Z,24.87
2023-03-12T12:43:17.740Z,25.02
2023-03-12T12:47:17.413Z,25.08
2023-03-12T12:51:17.520Z,25.25
2023-03-12T12:55:17.588Z,25.25
2023-03-12T12:59:17.684Z,25.34
2023-03-12T13:03:17.826Z,25.42
2023-03-12T13:07:17.904Z,25.38
2023-03-12T13:11:20.663Z,25.41
2023-03-12T13:15:18.460Z,25.44
2023-03-12T13:19:17.940Z,25.54
2023-03-12T13:23:17.880Z,25.70
2023-03-12T13:27:17.849Z,25.83
2023-03-12T13:31:17.897Z,25.97
2023-03-12T13:35:17.796Z,26.04
2023-03-12T13:39:17.813Z,26.25
2023-03-12T13:43:17.758Z,26.37
2023-03-12T13:47:17.673Z,26.41
2023-03-12T13:51:17.659Z,26.51
2023-03-12T13:55:17.629Z,26.67
2023-03-12T13:59:17.567Z,26.70
2023-03-12T14:03:17.731Z,26.85
2023-03-12T14:07:17.900Z,26.90
2023-03-12T14:11:18.087Z,26.95
2023-03-12T14:15:18.253Z,26.99
2023-03-12T14:19:18.430Z,27.13
2023-03-12T14:23:18.607Z,27.23
2023-03-12T14:27:18.782Z,27.42
2023-03-12T14:31:19.007Z,27.50
2023-03-12T14:35:19.199Z,27.49
2023-03-12T14:39:19.428Z,27.54
2023-03-12T14:43:19.614Z,27.49
2023-03-12T14:47:19.665Z,27.44
2023-03-12T14:51:21.059Z,27.46
2023-03-12T14:55:19.487Z,27.58
2023-03-12T14:59:19.493Z,27.69
2023-03-12T15:03:19.417Z,27.71
2023-03-12T15:07:19.398Z,27.84
2023-03-12T15:11:19.385Z,27.83
2023-03-12T15:15:19.340Z,27.92
2023-03-12T15:19:19.487Z,28.03
2023-03-12T15:23:19.253Z,28.04
2023-03-12T15:27:19.235Z,28.16
2023-03-12T15:31:19.234Z,28.13
2023-03-12T15:35:19.226Z,28.21
2023-03-12T15:39:19.120Z,28.18
2023-03-12T15:43:19.081Z,28.23
2023-03-12T15:47:19.054Z,28.26
2023-03-12T15:51:18.988Z,28.29
2023-03-12T15:55:18.967Z,28.27
2023-03-12T15:59:18.929Z,28.31
2023-03-12T16:03:18.907Z,28.28
2023-03-12T16:07:18.880Z,28.35
2023-03-12T16:11:18.852Z,28.42
2023-03-12T16:15:18.805Z,28.44
2023-03-12T16:19:18.873Z,28.42
2023-03-12T16:23:18.737Z,28.49
2023-03-12T16:27:30.358Z,28.61
2023-03-12T16:31:19.689Z,28.72
2023-03-12T16:35:18.677Z,28.74
2023-03-12T16:39:19.115Z,28.83
2023-03-12T16:43:18.547Z,28.78
2023-03-12T16:47:18.497Z,28.77
2023-03-12T16:51:18.445Z,28.80
2023-03-12T16:55:18.470Z,28.79
2023-03-12T16:59:18.414Z,28.73
2023-03-12T17:03:18.403Z,28.70
2023-03-12T17:07:18.389Z,28.68
2023-03-12T17:11:18.374Z,28.72
2023-03-12T17:15:18.377Z,28.72
2023-03-12T17:19:18.379Z,28.63
2023-03-12T17:23:18.389Z,28.59
2023-03-12T17:27:18.368Z,28.54
2023-03-12T17:31:18.487Z,28.56
2023-03-12T17:35:18.375Z,28.55
2023-03-12T17:39:18.350Z,28.50
2023-03-12T17:43:18.339Z,28.44
2023-03-12T17:47:18.377Z,28.45
2023-03-12T17:51:18.393Z,28.43
2023-03-12T17:55:18.349Z,28.43
2023-03-12T17:59:18.343Z,28.35
2023-03-12T18:03:18.520Z,28.33
2023-03-12T18:07:18.339Z,28.31
2023-03-12T18:11:18.339Z,28.28
2023-03-12T18:15:18.320Z,28.30
2023-03-12T18:19:18.329Z,28.27
2023-03-12T18:23:18.316Z,28.26
2023-03-12T18:27:18.312Z,28.23
2023-03-12T18:31:18.373Z,28.22
2023-03-12T18:35:18.366Z,28.23
2023-03-12T18:39:18.385Z,28.25
2023-03-12T18:43:19.723Z,28.22
2023-03-12T18:47:18.336Z,28.15
2023-03-12T18:51:18.343Z,28.09
2023-03-12T18:55:18.270Z,28.04
2023-03-12T18:59:18.241Z,27.98
2023-03-12T19:03:18.237Z,28.01
2023-03-12T19:07:18.161Z,27.97
2023-03-12T19:11:18.142Z,27.99
2023-03-12T19:15:18.077Z,27.97
2023-03-12T19:19:18.039Z,27.92
2023-03-12T19:23:18.005Z,27.90
2023-03-12T19:27:17.968Z,27.88
2023-03-12T19:31:17.973Z,27.87
2023-03-12T19:35:17.947Z,27.88
2023-03-12T19:39:21.781Z,27.86
2023-03-12T19:43:17.816Z,27.82
2023-03-12T19:47:18.443Z,27.79
2023-03-12T19:51:17.771Z,27.79
2023-03-12T19:55:17.739Z,27.74
2023-03-12T19:59:17.690Z,27.73
2023-03-12T20:03:17.815Z,27.74
2023-03-12T20:07:17.592Z,27.72
2023-03-12T20:11:17.547Z,27.70
2023-03-12T20:15:17.601Z,27.69
2023-03-12T20:19:17.481Z,27.69
2023-03-12T20:23:17.463Z,27.66
2023-03-12T20:27:17.414Z,27.64
2023-03-12T20:31:17.555Z,27.61
2023-03-12T20:35:17.329Z,27.57
2023-03-12T20:39:17.331Z,27.53
2023-03-12T20:43:17.298Z,27.53
2023-03-12T20:47:17.263Z,27.50
2023-03-12T20:51:17.245Z,27.47
2023-03-12T20:55:17.312Z,27.47
2023-03-12T20:59:17.368Z,27.46
2023-03-12T21:03:17.465Z,27.41
2023-03-12T21:07:17.937Z,27.39
2023-03-12T21:11:17.604Z,27.41
2023-03-12T21:15:17.691Z,27.41
2023-03-12T21:19:17.718Z,27.46
2023-03-12T21:23:17.802Z,27.48
2023-03-12T21:27:17.867Z,27.49
2023-03-12T21:31:17.951Z,27.49
2023-03-12T21:35:18.049Z,27.50
2023-03-12T21:39:18.019Z,27.53
2023-03-12T21:43:18.079Z,27.56
2023-03-12T21:47:18.185Z,27.55
2023-03-12T21:51:18.490Z,27.58
2023-03-12T21:55:18.316Z,27.56
2023-03-12T21:59:18.386Z,27.59
2023-03-12T22:03:18.477Z,27.61
2023-03-12T22:07:18.549Z,27.62
2023-03-12T22:11:18.635Z,27.61
2023-03-12T22:15:18.736Z,27.61
2023-03-12T22:19:18.874Z,27.57
2023-03-12T22:23:18.923Z,27.60
2023-03-12T22:27:19.038Z,27.64
2023-03-12T22:31:19.234Z,27.57
2023-03-12T22:35:19.256Z,27.65
2023-03-12T22:39:19.343Z,27.69
2023-03-12T22:43:19.460Z,27.67
2023-03-12T22:47:19.579Z,27.64
2023-03-12T22:51:19.680Z,27.71
2023-03-12T22:55:19.756Z,27.72
2023-03-12T22:59:19.852Z,27.70
2023-03-12T23:03:20.035Z,27.73
2023-03-12T23:07:20.072Z,27.74
2023-03-12T23:11:20.196Z,27.65
2023-03-12T23:15:22.633Z,27.57
2023-03-12T23:19:20.451Z,27.54
2023-03-12T23:23:20.576Z,27.53
2023-03-12T23:27:20.697Z,27.55
2023-03-12T23:31:20.904Z,27.52
2023-03-12T23:35:20.951Z,27.50
2023-03-12T23:39:21.049Z,27.56
2023-03-12T23:43:21.159Z,27.63
2023-03-12T23:47:21.292Z,27.66
2023-03-12T23:51:21.400Z,27.67
2023-03-12T23:55:21.545Z,27.60
2023-03-12T23:59:21.659Z,27.59
